sensor_id;sensor_type;location;lat;lon;timestamp;temperature;humidity
36548;DHT22;22551;52.206;4.856;2023-08-12T00:04:58;19.40;99.90
36548;DHT22;22551;52.206;4.856;2023-08-12T00:10:01;19.30;99.90
36548;DHT22;22551;52.206;4.856;2023-08-12T00:15:08;19.30;99.90
36548;DHT22;22551;52.206;4.856;2023-08-12T00:20:11;19.30;99.90
36548;DHT22;22551;52.206;4.856;2023-08-12T00:25:14;19.20;99.90
36548;DHT22;22551;52.206;4.856;2023-08-12T00:30:18;19.20;99.90
36548;DHT22;22551;52.206;4.856;2023-08-12T00:35:20;19.20;99.90
36548;DHT22;22551;52.206;4.856;2023-08-12T00:40:26;19.20;99.90
36548;DHT22;22551;52.206;4.856;2023-08-12T00:45:29;19.20;99.90
36548;DHT22;22551;52.206;4.856;2023-08-12T00:50:32;19.20;99.90
36548;DHT22;22551;52.206;4.856;2023-08-12T00:55:34;19.20;99.90
36548;DHT22;22551;52.206;4.856;2023-08-12T01:00:38;19.20;99.90
36548;DHT22;22551;52.206;4.856;2023-08-12T01:05:41;19.10;99.90
36548;DHT22;22551;52.206;4.856;2023-08-12T01:10:46;19.10;99.90
36548;DHT22;22551;52.206;4.856;2023-08-12T01:15:59;19.10;99.90
36548;DHT22;22551;52.206;4.856;2023-08-12T01:21:05;19.10;99.90
36548;DHT22;22551;52.206;4.856;2023-08-12T01:26:10;19.20;99.90
36548;DHT22;22551;52.206;4.856;2023-08-12T01:31:17;19.10;99.90
36548;DHT22;22551;52.206;4.856;2023-08-12T01:36:25;19.10;99.90
36548;DHT22;22551;52.206;4.856;2023-08-12T01:41:32;19.10;99.90
36548;DHT22;22551;52.206;4.856;2023-08-12T01:46:34;19.20;99.90
36548;DHT22;22551;52.206;4.856;2023-08-12T01:51:37;19.20;99.90
36548;DHT22;22551;52.206;4.856;2023-08-12T01:56:41;19.20;99.90
36548;DHT22;22551;52.206;4.856;2023-08-12T02:01:43;19.20;99.90
36548;DHT22;22551;52.206;4.856;2023-08-12T02:06:46;19.20;99.90
36548;DHT22;22551;52.206;4.856;2023-08-12T02:11:50;19.20;99.90
36548;DHT22;22551;52.206;4.856;2023-08-12T02:16:52;19.20;99.90
36548;DHT22;22551;52.206;4.856;2023-08-12T02:21:54;19.30;99.90
36548;DHT22;22551;52.206;4.856;2023-08-12T02:26:58;19.30;99.90
36548;DHT22;22551;52.206;4.856;2023-08-12T02:32:00;19.30;99.90
36548;DHT22;22551;52.206;4.856;2023-08-12T02:37:02;19.30;99.90
36548;DHT22;22551;52.206;4.856;2023-08-12T02:42:06;19.30;99.90
36548;DHT22;22551;52.206;4.856;2023-08-12T02:47:08;19.30;99.90
36548;DHT22;22551;52.206;4.856;2023-08-12T02:52:11;19.30;99.90
36548;DHT22;22551;52.206;4.856;2023-08-12T02:57:14;19.30;99.90
36548;DHT22;22551;52.206;4.856;2023-08-12T03:02:17;19.40;99.90
36548;DHT22;22551;52.206;4.856;2023-08-12T03:07:19;19.40;99.90
36548;DHT22;22551;52.206;4.856;2023-08-12T03:12:23;19.40;99.90
36548;DHT22;22551;52.206;4.856;2023-08-12T03:17:25;19.40;99.90
36548;DHT22;22551;52.206;4.856;2023-08-12T03:22:27;19.50;99.90
36548;DHT22;22551;52.206;4.856;2023-08-12T03:27:31;19.50;99.90
36548;DHT22;22551;52.206;4.856;2023-08-12T03:32:33;19.50;99.90
36548;DHT22;22551;52.206;4.856;2023-08-12T03:37:35;19.50;99.90
36548;DHT22;22551;52.206;4.856;2023-08-12T03:42:39;19.40;99.90
36548;DHT22;22551;52.206;4.856;2023-08-12T03:47:41;19.50;99.90
36548;DHT22;22551;52.206;4.856;2023-08-12T03:52:44;19.50;99.90
36548;DHT22;22551;52.206;4.856;2023-08-12T03:57:47;19.50;99.90
36548;DHT22;22551;52.206;4.856;2023-08-12T04:02:50;19.50;99.90
36548;DHT22;22551;52.206;4.856;2023-08-12T04:07:52;19.50;99.90
36548;DHT22;22551;52.206;4.856;2023-08-12T04:12:56;19.60;99.90
36548;DHT22;22551;52.206;4.856;2023-08-12T04:17:58;19.60;99.90
36548;DHT22;22551;52.206;4.856;2023-08-12T04:23:01;19.60;99.90
36548;DHT22;22551;52.206;4.856;2023-08-12T04:28:05;19.60;99.90
36548;DHT22;22551;52.206;4.856;2023-08-12T04:33:08;19.60;99.90
36548;DHT22;22551;52.206;4.856;2023-08-12T04:38:10;19.50;99.90
36548;DHT22;22551;52.206;4.856;2023-08-12T04:43:14;19.50;99.90
36548;DHT22;22551;52.206;4.856;2023-08-12T04:48:16;19.50;99.90
36548;DHT22;22551;52.206;4.856;2023-08-12T04:53:18;19.60;99.90
36548;DHT22;22551;52.206;4.856;2023-08-12T04:58:22;19.50;99.90
36548;DHT22;22551;52.206;4.856;2023-08-12T05:03:24;19.60;99.90
36548;DHT22;22551;52.206;4.856;2023-08-12T05:08:26;19.60;99.90
36548;DHT22;22551;52.206;4.856;2023-08-12T05:13:30;19.60;99.90
36548;DHT22;22551;52.206;4.856;2023-08-12T05:18:32;19.60;99.90
36548;DHT22;22551;52.206;4.856;2023-08-12T05:23:35;19.70;99.90
36548;DHT22;22551;52.206;4.856;2023-08-12T05:28:38;19.70;99.90
36548;DHT22;22551;52.206;4.856;2023-08-12T05:33:41;19.80;99.90
36548;DHT22;22551;52.206;4.856;2023-08-12T05:38:43;19.80;99.90
36548;DHT22;22551;52.206;4.856;2023-08-12T05:43:47;19.80;99.90
36548;DHT22;22551;52.206;4.856;2023-08-12T05:48:49;19.80;99.90
36548;DHT22;22551;52.206;4.856;2023-08-12T05:53:52;19.80;99.90
36548;DHT22;22551;52.206;4.856;2023-08-12T05:58:55;19.80;99.90
36548;DHT22;22551;52.206;4.856;2023-08-12T06:03:58;19.80;99.90
36548;DHT22;22551;52.206;4.856;2023-08-12T06:09:00;19.80;99.90
36548;DHT22;22551;52.206;4.856;2023-08-12T06:14:04;19.70;99.90
36548;DHT22;22551;52.206;4.856;2023-08-12T06:19:06;19.70;99.90
36548;DHT22;22551;52.206;4.856;2023-08-12T06:24:09;19.60;99.90
36548;DHT22;22551;52.206;4.856;2023-08-12T06:29:16;19.70;99.90
36548;DHT22;22551;52.206;4.856;2023-08-12T06:34:18;19.60;99.90
36548;DHT22;22551;52.206;4.856;2023-08-12T06:39:20;19.60;99.90
36548;DHT22;22551;52.206;4.856;2023-08-12T06:44:24;19.70;99.90
36548;DHT22;22551;52.206;4.856;2023-08-12T06:49:26;19.70;99.90
36548;DHT22;22551;52.206;4.856;2023-08-12T06:54:29;19.70;99.90
36548;DHT22;22551;52.206;4.856;2023-08-12T06:59:32;19.80;99.90
36548;DHT22;22551;52.206;4.856;2023-08-12T07:04:34;19.80;99.90
36548;DHT22;22551;52.206;4.856;2023-08-12T07:09:37;19.90;99.90
36548;DHT22;22551;52.206;4.856;2023-08-12T07:14:46;19.90;99.90
36548;DHT22;22551;52.206;4.856;2023-08-12T07:19:51;19.80;99.90
36548;DHT22;22551;52.206;4.856;2023-08-12T07:24:56;19.80;99.90
36548;DHT22;22551;52.206;4.856;2023-08-12T07:30:02;19.70;99.90
36548;DHT22;22551;52.206;4.856;2023-08-12T07:35:05;19.70;99.90
36548;DHT22;22551;52.206;4.856;2023-08-12T07:40:09;19.60;99.90
36548;DHT22;22551;52.206;4.856;2023-08-12T07:45:14;19.60;99.90
36548;DHT22;22551;52.206;4.856;2023-08-12T07:50:17;19.50;99.90
36548;DHT22;22551;52.206;4.856;2023-08-12T07:55:19;19.20;99.90
36548;DHT22;22551;52.206;4.856;2023-08-12T08:00:25;18.70;99.90
36548;DHT22;22551;52.206;4.856;2023-08-12T08:05:27;18.30;99.90
36548;DHT22;22551;52.206;4.856;2023-08-12T08:10:30;18.00;99.90
36548;DHT22;22551;52.206;4.856;2023-08-12T08:15:33;17.80;99.90
36548;DHT22;22551;52.206;4.856;2023-08-12T08:20:36;17.50;99.90
36548;DHT22;22551;52.206;4.856;2023-08-12T08:25:38;17.50;99.90
36548;DHT22;22551;52.206;4.856;2023-08-12T08:30:42;17.70;99.90
36548;DHT22;22551;52.206;4.856;2023-08-12T08:35:44;17.50;99.90
36548;DHT22;22551;52.206;4.856;2023-08-12T08:40:49;17.50;99.90
36548;DHT22;22551;52.206;4.856;2023-08-12T08:45:54;17.50;99.90
36548;DHT22;22551;52.206;4.856;2023-08-12T08:50:57;17.60;99.90
36548;DHT22;22551;52.206;4.856;2023-08-12T08:56:00;17.80;99.90
36548;DHT22;22551;52.206;4.856;2023-08-12T09:01:05;18.10;99.90
36548;DHT22;22551;52.206;4.856;2023-08-12T09:06:09;18.40;99.90
36548;DHT22;22551;52.206;4.856;2023-08-12T09:11:12;18.40;99.90
36548;DHT22;22551;52.206;4.856;2023-08-12T09:16:16;18.50;99.90
36548;DHT22;22551;52.206;4.856;2023-08-12T09:21:19;18.90;99.90
36548;DHT22;22551;52.206;4.856;2023-08-12T09:26:22;19.20;99.90
36548;DHT22;22551;52.206;4.856;2023-08-12T09:31:27;19.60;99.90
36548;DHT22;22551;52.206;4.856;2023-08-12T09:36:30;19.60;99.90
36548;DHT22;22551;52.206;4.856;2023-08-12T09:41:32;19.80;99.90
36548;DHT22;22551;52.206;4.856;2023-08-12T09:46:36;20.20;99.90
36548;DHT22;22551;52.206;4.856;2023-08-12T09:51:39;20.60;99.90
36548;DHT22;22551;52.206;4.856;2023-08-12T09:56:43;21.10;99.90
36548;DHT22;22551;52.206;4.856;2023-08-12T10:01:51;21.60;99.90
36548;DHT22;22551;52.206;4.856;2023-08-12T10:06:55;22.10;99.90
36548;DHT22;22551;52.206;4.856;2023-08-12T10:11:57;22.80;99.90
36548;DHT22;22551;52.206;4.856;2023-08-12T10:17:01;22.60;99.90
36548;DHT22;22551;52.206;4.856;2023-08-12T10:22:04;22.20;99.90
36548;DHT22;22551;52.206;4.856;2023-08-12T10:27:07;22.70;99.90
36548;DHT22;22551;52.206;4.856;2023-08-12T10:32:11;22.60;99.90
36548;DHT22;22551;52.206;4.856;2023-08-12T10:37:15;22.80;99.90
36548;DHT22;22551;52.206;4.856;2023-08-12T10:42:42;23.10;99.90
36548;DHT22;22551;52.206;4.856;2023-08-12T10:47:53;23.60;99.90
36548;DHT22;22551;52.206;4.856;2023-08-12T10:53:23;23.70;99.90
36548;DHT22;22551;52.206;4.856;2023-08-12T10:58:33;23.80;99.90
36548;DHT22;22551;52.206;4.856;2023-08-12T11:03:38;23.40;99.90
36548;DHT22;22551;52.206;4.856;2023-08-12T11:08:46;23.60;99.90
36548;DHT22;22551;52.206;4.856;2023-08-12T11:13:53;24.20;99.90
36548;DHT22;22551;52.206;4.856;2023-08-12T11:18:57;24.30;99.90
36548;DHT22;22551;52.206;4.856;2023-08-12T11:24:01;24.30;99.90
36548;DHT22;22551;52.206;4.856;2023-08-12T11:29:08;24.90;99.90
36548;DHT22;22551;52.206;4.856;2023-08-12T11:34:13;25.10;99.90
36548;DHT22;22551;52.206;4.856;2023-08-12T11:39:15;25.10;99.90
36548;DHT22;22551;52.206;4.856;2023-08-12T11:44:21;25.20;99.90
36548;DHT22;22551;52.206;4.856;2023-08-12T11:49:25;25.20;99.90
36548;DHT22;22551;52.206;4.856;2023-08-12T11:54:28;25.70;99.90
36548;DHT22;22551;52.206;4.856;2023-08-12T11:59:30;25.70;99.90
36548;DHT22;22551;52.206;4.856;2023-08-12T12:04:34;25.10;99.90
36548;DHT22;22551;52.206;4.856;2023-08-12T12:09:43;25.50;99.90
36548;DHT22;22551;52.206;4.856;2023-08-12T12:14:47;25.90;99.90
36548;DHT22;22551;52.206;4.856;2023-08-12T12:19:55;25.00;99.90
36548;DHT22;22551;52.206;4.856;2023-08-12T12:24:59;25.50;99.90
36548;DHT22;22551;52.206;4.856;2023-08-12T12:30:02;24.50;99.90
36548;DHT22;22551;52.206;4.856;2023-08-12T12:35:07;25.30;99.90
36548;DHT22;22551;52.206;4.856;2023-08-12T12:40:11;25.10;99.90
36548;DHT22;22551;52.206;4.856;2023-08-12T12:45:13;24.50;99.90
36548;DHT22;22551;52.206;4.856;2023-08-12T12:50:17;25.10;99.90
36548;DHT22;22551;52.206;4.856;2023-08-12T12:55:19;25.00;99.90
36548;DHT22;22551;52.206;4.856;2023-08-12T13:00:22;25.00;99.90
36548;DHT22;22551;52.206;4.856;2023-08-12T13:05:26;24.70;99.90
36548;DHT22;22551;52.206;4.856;2023-08-12T13:10:28;25.20;99.90
36548;DHT22;22551;52.206;4.856;2023-08-12T13:15:30;24.80;99.90
36548;DHT22;22551;52.206;4.856;2023-08-12T13:20:34;24.50;99.90
36548;DHT22;22551;52.206;4.856;2023-08-12T13:25:36;24.30;99.90
36548;DHT22;22551;52.206;4.856;2023-08-12T13:30:39;25.00;99.90
36548;DHT22;22551;52.206;4.856;2023-08-12T13:35:42;25.30;99.90
36548;DHT22;22551;52.206;4.856;2023-08-12T13:40:45;24.80;99.90
36548;DHT22;22551;52.206;4.856;2023-08-12T13:45:47;25.40;99.90
36548;DHT22;22551;52.206;4.856;2023-08-12T13:50:50;25.20;99.90
36548;DHT22;22551;52.206;4.856;2023-08-12T13:55:53;24.30;99.90
36548;DHT22;22551;52.206;4.856;2023-08-12T14:00:55;23.80;99.90
36548;DHT22;22551;52.206;4.856;2023-08-12T14:05:58;24.10;99.90
36548;DHT22;22551;52.206;4.856;2023-08-12T14:11:01;24.50;99.90
36548;DHT22;22551;52.206;4.856;2023-08-12T14:16:03;24.50;99.90
36548;DHT22;22551;52.206;4.856;2023-08-12T14:21:07;24.40;99.90
36548;DHT22;22551;52.206;4.856;2023-08-12T14:26:09;24.90;99.90
36548;DHT22;22551;52.206;4.856;2023-08-12T14:31:11;24.80;99.90
36548;DHT22;22551;52.206;4.856;2023-08-12T14:36:15;24.50;99.90
36548;DHT22;22551;52.206;4.856;2023-08-12T14:41:17;24.70;99.90
36548;DHT22;22551;52.206;4.856;2023-08-12T14:46:19;24.70;99.90
36548;DHT22;22551;52.206;4.856;2023-08-12T14:51:23;24.50;99.90
36548;DHT22;22551;52.206;4.856;2023-08-12T14:56:25;24.50;99.90
36548;DHT22;22551;52.206;4.856;2023-08-12T15:01:28;24.70;99.90
36548;DHT22;22551;52.206;4.856;2023-08-12T15:06:31;24.50;99.90
36548;DHT22;22551;52.206;4.856;2023-08-12T15:11:33;24.40;99.90
36548;DHT22;22551;52.206;4.856;2023-08-12T15:16:36;24.90;99.90
36548;DHT22;22551;52.206;4.856;2023-08-12T15:21:40;24.20;99.90
36548;DHT22;22551;52.206;4.856;2023-08-12T15:26:42;23.90;99.90
36548;DHT22;22551;52.206;4.856;2023-08-12T15:31:45;24.00;99.90
36548;DHT22;22551;52.206;4.856;2023-08-12T15:36:51;23.80;99.90
36548;DHT22;22551;52.206;4.856;2023-08-12T15:41:54;24.50;99.90
36548;DHT22;22551;52.206;4.856;2023-08-12T15:47:03;24.20;99.90
36548;DHT22;22551;52.206;4.856;2023-08-12T15:52:08;24.20;99.90
36548;DHT22;22551;52.206;4.856;2023-08-12T15:57:11;24.00;99.90
36548;DHT22;22551;52.206;4.856;2023-08-12T16:02:14;23.80;99.90
36548;DHT22;22551;52.206;4.856;2023-08-12T16:07:18;23.90;99.90
36548;DHT22;22551;52.206;4.856;2023-08-12T16:12:22;23.70;99.90
36548;DHT22;22551;52.206;4.856;2023-08-12T16:17:24;23.40;99.90
36548;DHT22;22551;52.206;4.856;2023-08-12T16:22:28;23.50;99.90
36548;DHT22;22551;52.206;4.856;2023-08-12T16:27:30;23.30;99.90
36548;DHT22;22551;52.206;4.856;2023-08-12T16:32:32;23.60;99.90
36548;DHT22;22551;52.206;4.856;2023-08-12T16:37:36;23.20;99.90
36548;DHT22;22551;52.206;4.856;2023-08-12T16:42:40;23.20;99.90
36548;DHT22;22551;52.206;4.856;2023-08-12T16:47:43;23.20;99.90
36548;DHT22;22551;52.206;4.856;2023-08-12T16:52:47;22.90;99.90
36548;DHT22;22551;52.206;4.856;2023-08-12T16:57:49;22.60;99.90
36548;DHT22;22551;52.206;4.856;2023-08-12T17:02:51;22.80;99.90
36548;DHT22;22551;52.206;4.856;2023-08-12T17:07:55;22.70;99.90
36548;DHT22;22551;52.206;4.856;2023-08-12T17:13:00;22.50;99.90
36548;DHT22;22551;52.206;4.856;2023-08-12T17:18:03;22.30;99.90
36548;DHT22;22551;52.206;4.856;2023-08-12T17:23:07;22.30;99.90
36548;DHT22;22551;52.206;4.856;2023-08-12T17:28:10;22.00;99.90
36548;DHT22;22551;52.206;4.856;2023-08-12T17:33:12;22.00;99.90
36548;DHT22;22551;52.206;4.856;2023-08-12T17:38:16;21.80;99.90
36548;DHT22;22551;52.206;4.856;2023-08-12T17:43:18;21.60;99.90
36548;DHT22;22551;52.206;4.856;2023-08-12T17:48:21;21.60;99.90
36548;DHT22;22551;52.206;4.856;2023-08-12T17:53:25;21.40;99.90
36548;DHT22;22551;52.206;4.856;2023-08-12T17:58:28;21.20;99.90
36548;DHT22;22551;52.206;4.856;2023-08-12T18:03:30;20.90;99.90
36548;DHT22;22551;52.206;4.856;2023-08-12T18:08:34;20.80;99.90
36548;DHT22;22551;52.206;4.856;2023-08-12T18:13:36;20.70;99.90
36548;DHT22;22551;52.206;4.856;2023-08-12T18:18:38;20.60;99.90
36548;DHT22;22551;52.206;4.856;2023-08-12T18:23:42;20.40;99.90
36548;DHT22;22551;52.206;4.856;2023-08-12T18:28:44;20.30;99.90
36548;DHT22;22551;52.206;4.856;2023-08-12T18:33:47;20.10;99.90
36548;DHT22;22551;52.206;4.856;2023-08-12T18:38:50;20.00;99.90
36548;DHT22;22551;52.206;4.856;2023-08-12T18:43:52;19.90;99.90
36548;DHT22;22551;52.206;4.856;2023-08-12T18:48:55;19.80;99.90
36548;DHT22;22551;52.206;4.856;2023-08-12T18:54:01;19.70;99.90
36548;DHT22;22551;52.206;4.856;2023-08-12T18:59:05;19.60;99.90
36548;DHT22;22551;52.206;4.856;2023-08-12T19:04:08;19.50;99.90
36548;DHT22;22551;52.206;4.856;2023-08-12T19:09:12;19.50;99.90
36548;DHT22;22551;52.206;4.856;2023-08-12T19:14:17;19.40;99.90
36548;DHT22;22551;52.206;4.856;2023-08-12T19:19:19;19.40;99.90
36548;DHT22;22551;52.206;4.856;2023-08-12T19:24:23;19.40;99.90
36548;DHT22;22551;52.206;4.856;2023-08-12T19:29:25;19.30;99.90
36548;DHT22;22551;52.206;4.856;2023-08-12T19:34:28;19.20;99.90
36548;DHT22;22551;52.206;4.856;2023-08-12T19:39:31;19.10;99.90
36548;DHT22;22551;52.206;4.856;2023-08-12T19:44:34;19.10;99.90
36548;DHT22;22551;52.206;4.856;2023-08-12T19:49:36;18.90;99.90
36548;DHT22;22551;52.206;4.856;2023-08-12T19:54:39;18.90;99.90
36548;DHT22;22551;52.206;4.856;2023-08-12T19:59:42;18.80;99.90
36548;DHT22;22551;52.206;4.856;2023-08-12T20:04:44;18.70;99.90
36548;DHT22;22551;52.206;4.856;2023-08-12T20:09:49;18.70;99.90
36548;DHT22;22551;52.206;4.856;2023-08-12T20:14:51;18.60;99.90
36548;DHT22;22551;52.206;4.856;2023-08-12T20:19:53;18.50;99.90
36548;DHT22;22551;52.206;4.856;2023-08-12T20:24:58;18.50;99.90
36548;DHT22;22551;52.206;4.856;2023-08-12T20:30:01;18.50;99.90
36548;DHT22;22551;52.206;4.856;2023-08-12T20:35:04;18.40;99.90
36548;DHT22;22551;52.206;4.856;2023-08-12T20:40:10;18.30;99.90
36548;DHT22;22551;52.206;4.856;2023-08-12T20:45:14;18.30;99.90
36548;DHT22;22551;52.206;4.856;2023-08-12T20:50:17;18.20;99.90
36548;DHT22;22551;52.206;4.856;2023-08-12T20:55:21;18.20;99.90
36548;DHT22;22551;52.206;4.856;2023-08-12T21:00:24;18.20;99.90
36548;DHT22;22551;52.206;4.856;2023-08-12T21:05:27;18.10;99.90
36548;DHT22;22551;52.206;4.856;2023-08-12T21:10:31;18.10;99.90
36548;DHT22;22551;52.206;4.856;2023-08-12T21:15:33;18.10;99.90
36548;DHT22;22551;52.206;4.856;2023-08-12T21:20:37;18.10;99.90
36548;DHT22;22551;52.206;4.856;2023-08-12T21:25:42;18.00;99.90
36548;DHT22;22551;52.206;4.856;2023-08-12T21:30:44;18.00;99.90
36548;DHT22;22551;52.206;4.856;2023-08-12T21:35:47;17.90;99.90
36548;DHT22;22551;52.206;4.856;2023-08-12T21:40:52;17.90;99.90
36548;DHT22;22551;52.206;4.856;2023-08-12T21:45:54;17.90;99.90
36548;DHT22;22551;52.206;4.856;2023-08-12T21:50:57;17.80;99.90
36548;DHT22;22551;52.206;4.856;2023-08-12T21:56:01;17.80;99.90
36548;DHT22;22551;52.206;4.856;2023-08-12T22:01:03;17.80;99.90
36548;DHT22;22551;52.206;4.856;2023-08-12T22:06:06;17.70;99.90
36548;DHT22;22551;52.206;4.856;2023-08-12T22:11:09;17.70;99.90
36548;DHT22;22551;52.206;4.856;2023-08-12T22:16:12;17.70;99.90
36548;DHT22;22551;52.206;4.856;2023-08-12T22:21:14;17.70;99.90
36548;DHT22;22551;52.206;4.856;2023-08-12T22:26:18;17.70;99.90
36548;DHT22;22551;52.206;4.856;2023-08-12T22:31:24;17.70;99.90
36548;DHT22;22551;52.206;4.856;2023-08-12T22:36:26;17.60;99.90
36548;DHT22;22551;52.206;4.856;2023-08-12T22:41:30;17.50;99.90
36548;DHT22;22551;52.206;4.856;2023-08-12T22:46:32;17.40;99.90
36548;DHT22;22551;52.206;4.856;2023-08-12T22:51:34;17.40;99.90
36548;DHT22;22551;52.206;4.856;2023-08-12T22:56:38;17.30;99.90
36548;DHT22;22551;52.206;4.856;2023-08-12T23:01:41;17.30;99.90
36548;DHT22;22551;52.206;4.856;2023-08-12T23:06:43;17.20;99.90
36548;DHT22;22551;52.206;4.856;2023-08-12T23:11:47;17.20;99.90
36548;DHT22;22551;52.206;4.856;2023-08-12T23:16:50;17.10;99.90
36548;DHT22;22551;52.206;4.856;2023-08-12T23:21:52;17.10;99.90
36548;DHT22;22551;52.206;4.856;2023-08-12T23:26:58;17.10;99.90
36548;DHT22;22551;52.206;4.856;2023-08-12T23:32:00;17.10;99.90
36548;DHT22;22551;52.206;4.856;2023-08-12T23:37:03;17.20;99.90
36548;DHT22;22551;52.206;4.856;2023-08-12T23:42:07;17.20;99.90
36548;DHT22;22551;52.206;4.856;2023-08-12T23:47:10;17.20;99.90
36548;DHT22;22551;52.206;4.856;2023-08-12T23:52:12;17.20;99.90
36548;DHT22;22551;52.206;4.856;2023-08-12T23:57:15;17.20;99.90
